Time;durP1;ratioP1;P1;durP2;ratioP2;P2;SDS_P1;SDS_P2;PMS_P1;PMS_P2;Temp;Humidity;BMP_temperature;BMP_pressure;BME280_temperature;BME280_humidity;BME280_pressure;Samples;Min_cycle;Max_cycle;Signal;HPM_P1;HPM_P2
2022/04/20 00:00:49;;;;;;;6.75;3.45;;;;;;;14.24;37.27;101431.97;5088146;28;20048;-60
2022/04/20 00:03:14;;;;;;;6.63;3.55;;;;;;;14.33;37.34;101431.50;5093819;28;20052;-60
2022/04/20 00:05:39;;;;;;;3.75;3.45;;;;;;;14.28;37.19;101434.25;5091636;28;20039;-60
2022/04/20 00:08:05;;;;;;;8.90;3.67;;;;;;;14.23;37.64;101430.28;5093365;28;20031;-60
2022/04/20 00:10:31;;;;;;;5.20;3.53;;;;;;;14.23;37.64;101432.25;5091451;28;20035;-60
2022/04/20 00:12:57;;;;;;;4.95;3.58;;;;;;;14.23;37.60;101432.25;5083337;28;20032;-60
2022/04/20 00:15:23;;;;;;;4.07;3.50;;;;;;;14.23;37.71;101435.88;5089661;28;20051;-60
2022/04/20 00:17:48;;;;;;;7.20;3.80;;;;;;;14.17;37.19;101436.91;5093642;28;20138;-60
2022/04/20 00:20:13;;;;;;;6.78;3.63;;;;;;;14.18;37.39;101437.75;5093779;28;20123;-60
2022/04/20 00:22:39;;;;;;;5.85;3.97;;;;;;;14.13;37.72;101434.91;5088752;28;20024;-60
2022/04/20 00:25:04;;;;;;;5.85;3.75;;;;;;;14.16;37.56;101445.56;5093366;28;20472;-60
2022/04/20 00:27:35;;;;;;;4.68;3.50;;;;;;;14.09;37.57;101436.53;5091475;28;20042;-60
2022/04/20 00:30:02;;;;;;;5.05;3.83;;;;;;;14.10;37.56;101432.66;5091055;28;20513;-60
2022/04/20 00:32:29;;;;;;;6.63;3.92;;;;;;;14.06;37.58;101434.28;5089325;28;20787;-60
2022/04/20 00:35:04;;;;;;;6.25;3.22;;;;;;;14.05;37.87;101443.75;5092203;28;20028;-60
2022/04/20 00:37:30;;;;;;;4.05;3.47;;;;;;;13.94;38.13;101440.84;5078530;28;20066;-60
2022/04/20 00:39:55;;;;;;;5.57;4.13;;;;;;;13.97;37.85;101445.91;5082675;28;20061;-60
2022/04/20 00:42:23;;;;;;;4.97;3.78;;;;;;;13.92;37.96;101445.84;5072706;28;20047;-60
2022/04/20 00:44:49;;;;;;;3.85;3.45;;;;;;;13.91;38.03;101444.19;5090138;28;20430;-60
2022/04/20 00:47:16;;;;;;;4.90;3.83;;;;;;;13.86;38.32;101446.03;5088556;28;20036;-60
2022/04/20 00:49:43;;;;;;;6.00;4.10;;;;;;;13.88;38.29;101444.69;5078787;28;20035;-60
2022/04/20 00:52:08;;;;;;;4.65;4.25;;;;;;;13.82;38.13;101445.72;5088460;28;20089;-60
2022/04/20 00:54:33;;;;;;;5.47;3.90;;;;;;;13.80;38.30;101452.69;5090440;28;20028;-60
2022/04/20 00:57:01;;;;;;;4.40;3.97;;;;;;;13.81;38.15;101452.41;5076889;28;20040;-61
2022/04/20 00:59:28;;;;;;;7.10;4.38;;;;;;;13.63;39.00;101453.56;5085992;28;20100;-61
2022/04/20 01:01:54;;;;;;;6.53;3.97;;;;;;;13.70;38.61;101456.19;5087999;28;20483;-60
2022/04/20 01:04:19;;;;;;;4.70;4.20;;;;;;;13.55;39.11;101445.66;5089802;28;20028;-60
2022/04/20 01:06:45;;;;;;;8.15;4.10;;;;;;;13.58;39.10;101447.09;5091116;28;20024;-60
2022/04/20 01:09:10;;;;;;;7.30;4.03;;;;;;;13.57;39.25;101449.03;5090826;28;20046;-61
2022/04/20 01:11:35;;;;;;;6.25;3.90;;;;;;;13.49;39.04;101455.06;5088937;28;20043;-60
2022/04/20 01:14:01;;;;;;;4.80;4.15;;;;;;;13.46;39.19;101447.22;5092362;28;20119;-61
2022/04/20 01:16:27;;;;;;;5.80;3.85;;;;;;;13.42;39.20;101458.03;5090680;28;20032;-60
2022/04/20 01:18:53;;;;;;;5.97;4.05;;;;;;;13.44;38.72;101450.28;5091734;28;20032;-61
2022/04/20 01:21:18;;;;;;;4.57;4.05;;;;;;;13.40;39.21;101449.09;5088639;28;20024;-61
2022/04/20 01:23:44;;;;;;;4.90;4.13;;;;;;;13.32;39.79;101460.66;5081553;28;20110;-60
2022/04/20 01:26:10;;;;;;;5.72;4.32;;;;;;;13.24;39.59;101449.97;5090749;28;20039;-60
2022/04/20 01:28:37;;;;;;;5.13;4.13;;;;;;;13.08;40.05;101451.63;5090136;28;20076;-60
2022/04/20 01:31:03;;;;;;;7.30;4.40;;;;;;;13.03;40.10;101448.78;5088366;28;20133;-60
2022/04/20 01:33:28;;;;;;;9.00;4.35;;;;;;;12.92;40.68;101453.34;5090603;28;20071;-62
2022/04/20 01:35:54;;;;;;;5.50;4.18;;;;;;;12.89;40.63;101461.38;5089681;28;20158;-60
2022/04/20 01:38:19;;;;;;;5.30;4.53;;;;;;;12.82;40.83;101455.16;5085151;28;20514;-60
2022/04/20 01:40:44;;;;;;;9.68;4.22;;;;;;;12.84;40.87;101462.13;5072108;28;20036;-60
2022/04/20 01:43:12;;;;;;;5.45;4.28;;;;;;;12.79;40.49;101456.47;5085660;28;20032;-60
2022/04/20 01:45:38;;;;;;;5.60;4.80;;;;;;;12.74;40.65;101456.41;5087674;28;20028;-60
2022/04/20 01:48:03;;;;;;;5.10;4.60;;;;;;;12.64;41.26;101456.22;5089896;28;20035;-60
2022/04/20 01:50:29;;;;;;;5.30;4.80;;;;;;;12.59;41.17;101456.16;5089582;28;20452;-60
2022/04/20 01:52:54;;;;;;;5.13;4.50;;;;;;;12.53;41.44;101460.75;5091058;28;20042;-60
2022/04/20 01:55:22;;;;;;;5.03;4.35;;;;;;;12.59;41.13;101456.16;5088074;28;20020;-60
2022/04/20 01:57:48;;;;;;;7.43;4.78;;;;;;;12.47;41.42;101459.00;5089148;28;20083;-60
2022/04/20 02:00:14;;;;;;;5.72;5.03;;;;;;;12.49;41.31;101459.56;5087964;28;20467;-60
2022/04/20 02:02:39;;;;;;;5.57;4.47;;;;;;;12.40;41.64;101458.31;5088964;28;20055;-60
2022/04/20 02:05:11;;;;;;;5.18;4.68;;;;;;;12.37;41.36;101456.84;5091326;28;20047;-60
2022/04/20 02:07:36;;;;;;;5.53;4.60;;;;;;;12.39;41.43;101460.25;5086802;28;20524;-60
2022/04/20 02:10:03;;;;;;;6.55;5.22;;;;;;;12.42;41.07;101458.91;5089062;28;20028;-60
2022/04/20 02:12:29;;;;;;;5.70;4.47;;;;;;;12.43;40.80;101460.59;5089124;28;20044;-60
2022/04/20 02:14:54;;;;;;;5.15;4.60;;;;;;;12.50;40.65;101451.00;5088828;28;20429;-60
2022/04/20 02:17:20;;;;;;;5.80;5.03;;;;;;;12.48;40.59;101455.94;5087656;28;20480;-60
2022/04/20 02:19:45;;;;;;;9.35;5.07;;;;;;;12.34;41.20;101457.38;5071077;28;20037;-60
2022/04/20 02:22:10;;;;;;;5.85;4.53;;;;;;;12.41;40.83;101449.69;5074649;28;20489;-60
2022/04/20 02:24:35;;;;;;;8.38;5.03;;;;;;;12.45;40.70;101450.88;5089760;28;20028;-60
2022/04/20 02:27:01;;;;;;;6.93;5.13;;;;;;;12.47;40.45;101456.22;5089841;28;20039;-60
2022/04/20 02:29:26;;;;;;;7.25;4.93;;;;;;;12.45;40.16;101450.03;5089619;28;20044;-60
2022/04/20 02:31:51;;;;;;;5.65;4.97;;;;;;;12.46;40.41;101447.03;5075309;28;20060;-60
2022/04/20 02:34:17;;;;;;;7.35;4.85;;;;;;;12.50;40.01;101444.59;5074844;28;20024;-60
2022/04/20 02:36:42;;;;;;;9.85;4.97;;;;;;;12.55;40.05;101452.19;5070353;28;20020;-60
2022/04/20 02:39:07;;;;;;;7.18;4.88;;;;;;;12.45;40.25;101450.88;5088553;28;20043;-60
2022/04/20 02:41:40;;;;;;;6.22;4.78;;;;;;;12.53;39.96;101449.63;5072440;28;20181;-60
2022/04/20 02:44:06;;;;;;;7.40;4.75;;;;;;;12.41;40.14;101448.84;5079027;28;20387;-60
2022/04/20 02:46:32;;;;;;;7.15;5.30;;;;;;;12.48;40.10;101450.38;5090046;28;20047;-60
2022/04/20 02:48:57;;;;;;;10.38;4.85;;;;;;;12.45;40.03;101452.81;5088183;28;20036;-60
2022/04/20 02:51:22;;;;;;;6.22;5.05;;;;;;;12.31;40.39;101459.81;5090941;28;20070;-60
2022/04/20 02:53:48;;;;;;;8.98;5.32;;;;;;;12.37;40.14;101461.59;5088949;28;20035;-60
2022/04/20 02:56:13;;;;;;;7.63;5.25;;;;;;;12.39;39.96;101463.03;5090307;28;20432;-61
2022/04/20 02:58:38;;;;;;;6.72;5.00;;;;;;;12.33;39.94;101461.25;5087392;28;20040;-61
2022/04/20 03:01:04;;;;;;;6.70;5.10;;;;;;;12.34;40.18;101460.16;5083685;28;20055;-60
2022/04/20 03:03:29;;;;;;;5.75;4.90;;;;;;;12.35;39.92;101461.84;5089743;28;20391;-60
2022/04/20 03:05:54;;;;;;;5.55;4.85;;;;;;;12.28;40.19;101470.34;5089093;28;20071;-60
2022/04/20 03:08:20;;;;;;;6.72;5.15;;;;;;;12.31;39.89;101463.44;5092680;28;20032;-60
2022/04/20 03:10:46;;;;;;;5.82;5.13;;;;;;;12.23;39.95;101464.69;5092015;28;20374;-60
2022/04/20 03:13:11;;;;;;;8.07;5.18;;;;;;;12.25;40.03;101461.66;5082924;28;20063;-62
2022/04/20 03:15:36;;;;;;;6.75;5.20;;;;;;;12.21;39.91;101466.03;5090894;28;20052;-60
2022/04/20 03:18:02;;;;;;;8.07;5.38;;;;;;;12.23;40.15;101470.25;5086659;28;20035;-60
2022/04/20 03:20:27;;;;;;;6.18;5.32;;;;;;;12.17;39.97;101462.06;5083773;28;20041;-60
2022/04/20 03:22:53;;;;;;;6.07;4.82;;;;;;;12.19;40.19;101469.06;5074412;28;20093;-60
2022/04/20 03:25:18;;;;;;;7.18;5.07;;;;;;;12.09;40.06;101465.22;5087528;28;20479;-60
2022/04/20 03:27:43;;;;;;;5.82;4.85;;;;;;;12.07;40.21;101478.56;5094286;28;20187;-60
2022/04/20 03:30:11;;;;;;;6.57;5.45;;;;;;;12.08;40.12;101480.25;5092734;28;20032;-61
2022/04/20 03:32:37;;;;;;;5.93;5.22;;;;;;;12.04;40.44;101483.53;5093513;28;20483;-61
2022/04/20 03:35:02;;;;;;;5.45;4.70;;;;;;;12.04;40.28;101480.72;5094402;28;20043;-60
2022/04/20 03:37:31;;;;;;;7.95;4.82;;;;;;;12.02;40.19;101477.38;5088911;28;20036;-61
2022/04/20 03:39:57;;;;;;;8.10;5.07;;;;;;;12.04;40.34;101491.03;5083233;28;20158;-60
2022/04/20 03:42:22;;;;;;;5.85;5.18;;;;;;;12.07;40.09;101482.19;5093911;28;20028;-61
2022/04/20 03:44:48;;;;;;;8.45;5.00;;;;;;;12.02;40.34;101482.94;5093579;28;20487;-60
2022/04/20 03:47:13;;;;;;;8.60;5.53;;;;;;;11.93;40.43;101484.41;5093306;28;20023;-60
2022/04/20 03:49:39;;;;;;;6.03;4.88;;;;;;;12.01;40.28;101488.72;5094041;28;20016;-60
2022/04/20 03:52:06;;;;;;;6.35;5.25;;;;;;;12.01;40.17;101486.78;5093286;28;20391;-60
2022/04/20 03:54:32;;;;;;;7.25;4.80;;;;;;;12.00;40.34;101485.09;5087816;28;20475;-60
2022/04/20 03:57:03;;;;;;;8.45;5.07;;;;;;;12.00;40.36;101493.44;5093562;28;20080;-60
2022/04/20 03:59:29;;;;;;;6.38;5.32;;;;;;;11.96;40.37;101488.63;5092055;28;20403;-60
2022/04/20 04:01:54;;;;;;;8.32;5.82;;;;;;;11.94;40.49;101488.03;5086920;28;20024;-60
2022/04/20 04:04:20;;;;;;;6.63;4.97;;;;;;;11.91;40.37;101492.16;5089611;28;20433;-60
2022/04/20 04:06:46;;;;;;;6.75;5.05;;;;;;;11.81;40.29;101489.13;5090372;28;20107;-60
2022/04/20 04:09:12;;;;;;;8.13;5.38;;;;;;;11.74;40.98;101492.03;5088737;28;20540;-60
2022/04/20 04:11:37;;;;;;;6.70;5.55;;;;;;;11.71;40.82;101494.44;5089696;28;20103;-60
2022/04/20 04:14:03;;;;;;;7.47;5.30;;;;;;;11.73;41.18;101498.69;5078350;28;20051;-60
2022/04/20 04:16:28;;;;;;;6.68;5.13;;;;;;;11.66;41.10;101506.31;5082600;28;20066;-60
2022/04/20 04:18:53;;;;;;;6.28;5.65;;;;;;;11.68;40.87;101508.88;5085008;28;20028;-60
2022/04/20 04:21:18;;;;;;;8.50;4.88;;;;;;;11.64;41.07;101502.09;5081851;28;20036;-60
2022/04/20 04:23:43;;;;;;;5.93;5.10;;;;;;;11.59;41.12;101507.53;5080501;28;20032;-60
2022/04/20 04:26:12;;;;;;;6.50;5.10;;;;;;;11.53;40.89;101513.00;5088232;28;20039;-60
2022/04/20 04:28:37;;;;;;;7.30;5.07;;;;;;;11.46;41.79;101512.25;5087061;28;20073;-60
2022/04/20 04:31:02;;;;;;;6.90;5.55;;;;;;;11.46;41.26;101520.59;5084265;28;20035;-60
2022/04/20 04:33:31;;;;;;;6.35;5.25;;;;;;;11.48;41.48;101512.03;5076570;28;20029;-60
2022/04/20 04:35:56;;;;;;;9.52;6.30;;;;;;;11.38;41.85;101517.34;5089436;28;20050;-60
2022/04/20 04:38:21;;;;;;;9.30;5.60;;;;;;;11.39;41.78;101516.25;5092928;28;20476;-60
2022/04/20 04:40:47;;;;;;;10.98;5.60;;;;;;;11.27;42.21;101524.59;5091209;28;20495;-60
2022/04/20 04:43:21;;;;;;;8.32;5.18;;;;;;;11.24;41.94;101527.88;5090348;28;20084;-60
2022/04/20 04:48:36;;;;;;;7.60;5.22;;;;;;;11.31;42.18;101536.91;5081137;28;20035;-60
2022/04/20 04:51:05;;;;;;;6.03;4.88;;;;;;;11.22;42.65;101533.66;5091038;28;20032;-59
2022/04/20 04:53:31;;;;;;;8.65;5.20;;;;;;;11.19;42.22;101536.91;5093233;28;20112;-60
2022/04/20 04:55:56;;;;;;;6.25;5.63;;;;;;;11.16;42.62;101539.31;5090761;28;20058;-60
2022/04/20 04:58:22;;;;;;;6.68;6.03;;;;;;;11.09;42.69;101538.63;5085574;28;20039;-60
2022/04/20 05:00:47;;;;;;;8.40;5.43;;;;;;;10.98;43.35;101538.34;5086045;28;20048;-60
2022/04/20 05:03:14;;;;;;;9.68;6.20;;;;;;;10.95;43.54;101544.38;5090959;28;20036;-59
2022/04/20 05:05:41;;;;;;;7.20;5.65;;;;;;;10.94;42.87;101542.69;5087953;28;20024;-60
2022/04/20 05:08:09;;;;;;;8.55;6.13;;;;;;;10.90;43.72;101540.63;5091739;28;20097;-61
2022/04/20 05:10:36;;;;;;;8.13;5.63;;;;;;;10.86;43.47;101542.19;5087565;28;20036;-60
2022/04/20 05:13:04;;;;;;;7.10;5.65;;;;;;;10.88;43.39;101538.06;5088509;28;20032;-60
2022/04/20 05:15:34;;;;;;;15.88;5.63;;;;;;;10.95;43.01;101536.03;5083465;28;20023;-60
2022/04/20 05:18:00;;;;;;;6.82;5.82;;;;;;;10.95;43.06;101541.59;5081566;28;20032;-60
2022/04/20 05:20:26;;;;;;;6.85;5.68;;;;;;;11.04;42.67;101540.19;5088393;28;20020;-60
2022/04/20 05:22:51;;;;;;;8.75;5.78;;;;;;;11.12;42.77;101535.34;5086138;28;20051;-60
2022/04/20 05:25:16;;;;;;;9.70;5.85;;;;;;;11.18;42.38;101542.72;5087247;28;20096;-60
2022/04/20 05:27:42;;;;;;;8.50;5.18;;;;;;;11.21;42.52;101543.09;5089555;28;20029;-60
2022/04/20 05:30:10;;;;;;;6.10;5.50;;;;;;;11.22;42.37;101541.16;5081114;28;20444;-60
2022/04/20 05:32:35;;;;;;;7.45;5.60;;;;;;;11.21;42.37;101545.03;5084906;28;21954;-60
2022/04/20 05:35:01;;;;;;;8.23;5.70;;;;;;;11.19;42.35;101545.25;5086299;28;20020;-60
2022/04/20 05:42:55;;;;;;;9.32;5.93;;;;;;;11.21;42.46;101561.69;5079152;28;20103;-60
2022/04/20 05:45:20;;;;;;;6.28;5.60;;;;;;;11.15;42.46;101557.09;5079361;28;20036;-60
2022/04/20 05:47:48;;;;;;;6.63;5.50;;;;;;;11.19;42.47;101561.09;5091136;28;20024;-60
2022/04/20 05:50:14;;;;;;;6.32;5.60;;;;;;;11.15;42.81;101554.31;5090055;28;20135;-60
2022/04/20 05:52:39;;;;;;;6.85;5.78;;;;;;;11.13;42.63;101557.34;5079580;28;20120;-60
2022/04/20 05:55:05;;;;;;;8.88;6.25;;;;;;;11.21;42.53;101556.16;5088332;28;20028;-60
2022/04/20 05:57:32;;;;;;;7.75;5.70;;;;;;;11.16;42.65;101556.00;5085219;28;20432;-61
2022/04/20 05:59:58;;;;;;;9.95;6.10;;;;;;;11.20;42.79;101562.78;5089621;28;20092;-61
2022/04/20 06:02:23;;;;;;;5.72;5.15;;;;;;;11.23;42.57;101557.56;5087090;28;20036;-61
2022/04/20 06:04:48;;;;;;;10.18;5.55;;;;;;;11.28;42.74;101556.88;5089617;28;20104;-61
2022/04/20 06:07:13;;;;;;;6.57;5.78;;;;;;;11.31;42.75;101553.59;5086485;28;20040;-60
2022/04/20 06:09:39;;;;;;;8.05;5.72;;;;;;;11.34;42.61;101557.84;5083097;28;20732;-60
2022/04/20 06:12:05;;;;;;;7.30;5.60;;;;;;;11.34;42.51;101557.84;5083829;28;20506;-61
2022/04/20 06:14:31;;;;;;;10.40;5.72;;;;;;;11.39;42.69;101555.16;5076605;28;20020;-61
2022/04/20 06:16:56;;;;;;;6.88;5.70;;;;;;;11.37;42.91;101554.59;5076438;28;20036;-61
2022/04/20 06:19:21;;;;;;;10.18;5.70;;;;;;;11.46;42.66;101558.69;5087650;28;20076;-61
2022/04/20 06:21:46;;;;;;;8.75;6.30;;;;;;;11.54;42.93;101563.88;5084444;28;20036;-61
2022/04/20 06:24:13;;;;;;;7.28;6.40;;;;;;;11.57;42.58;101560.63;5087834;28;20039;-61
2022/04/20 06:26:38;;;;;;;11.18;6.40;;;;;;;11.57;42.48;101565.34;5084291;28;20391;-61
2022/04/20 06:29:03;;;;;;;9.23;6.25;;;;;;;11.59;42.62;101571.47;5086303;28;20119;-61
2022/04/20 06:31:29;;;;;;;7.88;6.22;;;;;;;11.66;42.63;101566.66;5079139;28;20062;-60
2022/04/20 06:33:58;;;;;;;9.73;6.10;;;;;;;11.76;42.47;101564.13;5081860;28;20047;-61
2022/04/20 06:36:24;;;;;;;8.27;5.85;;;;;;;11.90;42.26;101568.34;5089738;28;20024;-61
2022/04/20 06:38:49;;;;;;;7.88;6.60;;;;;;;11.95;41.87;101562.91;5087896;28;20041;-61
2022/04/20 06:41:14;;;;;;;12.30;7.03;;;;;;;11.99;42.11;101574.41;5083323;28;20868;-62
2022/04/20 06:43:39;;;;;;;17.25;6.85;;;;;;;12.03;42.30;101572.81;5090250;28;20035;-61
2022/04/20 06:46:05;;;;;;;11.25;5.80;;;;;;;12.15;42.12;101575.56;5092974;28;20036;-61
2022/04/20 06:48:32;;;;;;;9.95;6.07;;;;;;;12.24;41.66;101574.91;5093124;28;20137;-62
2022/04/20 06:50:57;;;;;;;8.80;6.05;;;;;;;12.37;41.34;101582.13;5094706;28;20028;-62
2022/04/20 06:58:52;;;;;;;13.23;6.05;;;;;;;12.62;41.02;101565.09;5095471;28;20034;-62
2022/04/20 07:01:17;;;;;;;9.20;5.20;;;;;;;12.75;43.98;101559.22;5102392;28;20104;-63
2022/04/20 07:03:42;;;;;;;8.55;5.18;;;;;;;12.88;42.13;101568.34;5101283;28;20390;-63
2022/04/20 07:06:08;;;;;;;7.43;4.90;;;;;;;13.08;43.76;101568.69;5108486;28;20024;-62
2022/04/20 07:08:34;;;;;;;6.68;5.82;;;;;;;13.01;40.77;101568.03;5113138;28;20027;-63
2022/04/20 07:11:00;;;;;;;9.80;5.60;;;;;;;13.14;40.96;101564.91;5106876;28;20024;-62
2022/04/20 07:13:26;;;;;;;9.15;5.80;;;;;;;13.21;40.04;101573.13;5107534;28;20032;-63
2022/04/20 07:15:51;;;;;;;8.25;4.72;;;;;;;13.41;41.46;101567.91;5106860;28;20044;-63
2022/04/20 07:18:16;;;;;;;8.95;5.35;;;;;;;13.49;41.49;101573.03;5089221;28;20056;-63
2022/04/20 07:20:42;;;;;;;8.00;5.40;;;;;;;13.43;39.47;101567.63;5094207;28;20475;-62
2022/04/20 07:23:08;;;;;;;10.60;5.95;;;;;;;13.45;39.53;101565.44;5089804;28;20039;-61
2022/04/20 07:25:34;;;;;;;10.93;5.05;;;;;;;13.54;40.12;101554.69;5092202;28;20089;-63
2022/04/20 07:27:59;;;;;;;10.05;5.88;;;;;;;13.53;39.11;101561.38;5094363;28;20020;-64
2022/04/20 07:30:26;;;;;;;9.70;5.60;;;;;;;13.61;39.17;101561.78;5090073;28;20028;-64
2022/04/20 07:32:52;;;;;;;6.43;4.88;;;;;;;13.74;39.72;101569.78;5088214;28;20113;-63
2022/04/20 07:35:17;;;;;;;6.32;4.78;;;;;;;13.87;39.87;101568.59;5094164;28;20450;-63
2022/04/20 07:37:42;;;;;;;12.05;5.63;;;;;;;13.93;38.84;101572.28;5095118;28;20043;-63
2022/04/20 07:40:08;;;;;;;6.78;5.13;;;;;;;14.07;38.49;101569.94;5109248;28;20378;-63
2022/04/20 07:42:36;;;;;;;9.48;5.05;;;;;;;14.24;39.12;101576.31;5096632;28;20027;-63
2022/04/20 07:45:02;;;;;;;9.00;5.85;;;;;;;14.24;38.39;101567.94;5098319;28;20024;-63
2022/04/20 07:47:28;;;;;;;6.05;3.38;;;;;;;14.57;45.09;101571.69;5094097;28;20028;-62
2022/04/20 07:52:58;;;;;;;4.70;2.70;;;;;;;15.09;43.92;101577.56;5113500;28;20042;-63
2022/04/20 07:55:25;;;;;;;4.93;3.75;;;;;;;15.25;41.13;101575.75;5108441;28;20036;-63
2022/04/20 07:57:53;;;;;;;5.47;3.33;;;;;;;15.52;40.53;101586.00;5091216;28;20414;-63
2022/04/20 08:00:20;;;;;;;6.93;4.15;;;;;;;15.54;38.71;101581.84;5091605;28;20043;-60
2022/04/20 08:02:46;;;;;;;9.38;4.60;;;;;;;15.57;37.80;101586.91;5099738;28;20518;-63
2022/04/20 08:05:17;;;;;;;5.70;4.07;;;;;;;15.58;37.04;101582.97;5090497;28;20028;-67
2022/04/20 08:07:43;;;;;;;3.97;2.88;;;;;;;15.70;36.55;101582.81;5089541;28;20043;-64
2022/04/20 08:10:10;;;;;;;6.72;3.83;;;;;;;15.78;35.95;101582.31;5106734;28;20024;-65
2022/04/20 08:12:45;;;;;;;5.03;3.97;;;;;;;15.94;37.22;101574.84;5077927;28;20161;-64
2022/04/20 08:15:11;;;;;;;5.78;3.60;;;;;;;16.12;36.30;101581.94;5089099;28;20028;-63
2022/04/20 08:17:38;;;;;;;8.13;4.28;;;;;;;16.11;35.40;101581.09;5095256;28;20030;-63
2022/04/20 08:20:05;;;;;;;7.30;3.58;;;;;;;16.34;36.07;101591.00;5088187;28;20032;-64
2022/04/20 08:22:30;;;;;;;6.88;3.58;;;;;;;16.48;35.98;101582.09;5104510;28;20032;-64
2022/04/20 08:24:56;;;;;;;10.10;4.47;;;;;;;16.38;34.41;101589.31;5091230;28;20110;-63
2022/04/20 08:27:22;;;;;;;8.95;3.97;;;;;;;16.38;34.76;101582.88;5088585;28;20028;-63
2022/04/20 08:29:51;;;;;;;5.88;3.88;;;;;;;16.42;35.36;101589.63;5093406;28;20032;-62
2022/04/20 08:32:18;;;;;;;8.95;3.83;;;;;;;16.44;34.22;101588.25;5092709;28;20153;-62
2022/04/20 08:34:45;;;;;;;6.80;3.75;;;;;;;16.60;34.75;101591.94;5088377;28;20047;-63
2022/04/20 08:37:10;;;;;;;7.13;4.55;;;;;;;16.59;33.97;101584.66;5106955;28;20088;-63
2022/04/20 08:39:37;;;;;;;6.10;4.38;;;;;;;16.73;34.49;101598.13;5106107;28;20019;-62
2022/04/20 08:42:04;;;;;;;7.00;4.00;;;;;;;16.82;34.04;101591.75;5107276;28;20047;-63
2022/04/20 08:44:33;;;;;;;8.38;4.65;;;;;;;16.79;33.74;101591.47;5111779;28;20402;-62
2022/04/20 08:47:01;;;;;;;9.05;4.22;;;;;;;16.91;33.90;101586.44;5106534;28;20028;-62
2022/04/20 08:49:26;;;;;;;5.38;4.38;;;;;;;16.92;33.68;101591.75;5101378;28;20032;-62
2022/04/20 08:54:37;;;;;;;9.07;4.60;;;;;;;17.08;32.73;101580.56;5075973;28;20047;-62
2022/04/20 08:57:16;;;;;;;7.43;5.35;;;;;;;17.07;32.00;101581.69;5104302;28;20040;-62
2022/04/20 08:59:43;;;;;;;5.82;4.57;;;;;;;17.10;32.80;101572.72;5095343;28;20035;-63
2022/04/20 09:02:10;;;;;;;6.47;4.22;;;;;;;17.09;32.20;101565.41;5103065;28;20065;-62
2022/04/20 09:04:35;;;;;;;6.63;5.28;;;;;;;17.11;31.31;101571.59;5087872;28;20441;-62
2022/04/20 09:07:01;;;;;;;7.93;5.13;;;;;;;17.07;31.37;101570.47;5091639;28;20016;-63
2022/04/20 09:09:29;;;;;;;8.27;5.90;;;;;;;17.05;31.28;101565.13;5096637;28;20039;-63
2022/04/20 09:11:59;;;;;;;7.70;4.97;;;;;;;17.09;31.69;101571.00;5093639;28;20861;-62
2022/04/20 09:14:25;;;;;;;8.63;5.15;;;;;;;17.18;31.77;101572.16;5112251;28;20059;-63
2022/04/20 09:16:57;;;;;;;5.10;4.30;;;;;;;17.32;31.80;101567.66;5107233;28;20486;-62
2022/04/20 09:19:27;;;;;;;6.07;4.30;;;;;;;17.43;31.54;101574.94;5075918;28;20068;-64
2022/04/20 09:21:52;;;;;;;8.52;5.15;;;;;;;17.35;31.18;101569.91;5072028;28;20020;-63
2022/04/20 09:24:18;;;;;;;6.22;4.18;;;;;;;17.45;31.13;101568.22;5097590;28;20475;-61
2022/04/20 09:26:54;;;;;;;6.63;3.95;;;;;;;17.54;31.67;101564.56;5111785;28;20035;-62
2022/04/20 09:29:23;;;;;;;5.25;4.43;;;;;;;17.62;31.24;101563.16;5107335;27;20494;-63
2022/04/20 09:31:53;;;;;;;4.93;3.95;;;;;;;17.80;31.16;101562.59;5090240;28;20379;-63
2022/04/20 09:35:15;;;;;;;6.32;4.57;;;;;;;17.84;31.48;101565.66;5081082;28;20056;-61
2022/04/20 09:37:19;;;;;;;6.28;4.28;;;;;;;17.77;30.16;101554.72;5072432;28;20132;-62
2022/04/20 09:39:50;;;;;;;7.10;4.05;;;;;;;17.80;29.99;101548.56;5082448;28;20484;-63
2022/04/20 09:42:16;;;;;;;6.72;3.83;;;;;;;17.83;30.43;101550.75;5085455;28;20481;-63
2022/04/20 09:45:05;;;;;;;6.30;4.93;;;;;;;17.67;29.21;101543.47;5103229;28;20042;-61
2022/04/20 09:50:21;;;;;;;4.70;4.20;;;;;;;17.36;30.67;101540.72;5100943;28;20188;-62
2022/04/20 09:52:52;;;;;;;5.53;4.55;;;;;;;17.35;31.77;101544.66;5090161;28;20510;-62
2022/04/20 09:55:31;;;;;;;10.73;3.90;;;;;;;17.57;31.48;101546.31;5096010;28;20062;-64
2022/04/20 09:58:19;;;;;;;5.97;3.53;;;;;;;17.63;31.85;101537.59;5080653;28;20052;-63
2022/04/20 10:00:45;;;;;;;4.43;3.05;;;;;;;17.71;31.44;101538.97;5097007;28;20036;-63
2022/04/20 10:03:29;;;;;;;6.30;4.35;;;;;;;17.65;30.73;101538.16;5105028;28;20104;-62
2022/04/20 10:05:56;;;;;;;4.32;3.70;;;;;;;17.89;31.72;101535.59;5109428;28;20024;-63
2022/04/20 10:08:23;;;;;;;5.63;4.00;;;;;;;17.88;30.10;101538.66;5085597;28;20037;-63
2022/04/20 10:10:52;;;;;;;5.63;3.60;;;;;;;17.86;30.19;101541.78;5079738;28;20028;-63
2022/04/20 10:13:18;;;;;;;3.92;3.50;;;;;;;17.90;30.14;101531.66;5088383;28;20564;-63
2022/04/20 10:16:10;;;;;;;9.23;4.25;;;;;;;17.85;29.79;101533.66;5079525;28;20033;-63
2022/04/20 10:18:37;;;;;;;7.07;4.22;;;;;;;17.87;30.36;101525.78;5085221;28;20135;-63
2022/04/20 10:21:03;;;;;;;6.05;3.60;;;;;;;17.89;30.87;101521.56;5066768;28;20099;-63
2022/04/20 10:23:34;;;;;;;5.63;3.17;;;;;;;18.04;30.79;101514.22;5067150;28;20391;-62
2022/04/20 10:26:00;;;;;;;3.92;2.88;;;;;;;18.15;30.93;101519.47;5086397;28;20427;-62
2022/04/20 10:28:58;;;;;;;6.65;3.72;;;;;;;18.01;30.53;101523.19;5086951;28;20028;-63
2022/04/20 10:31:46;;;;;;;3.75;3.30;;;;;;;17.88;30.51;101519.88;5087492;28;20081;-63
2022/04/20 10:34:13;;;;;;;5.57;3.15;;;;;;;17.71;29.75;101516.50;5088292;28;20044;-63
2022/04/20 10:36:38;;;;;;;5.97;3.75;;;;;;;17.73;29.63;101517.09;5095582;28;20101;-63
2022/04/20 10:39:40;;;;;;;6.80;3.25;;;;;;;17.73;30.53;101519.91;5090994;28;20020;-62
2022/04/20 10:42:11;;;;;;;5.90;3.13;;;;;;;17.69;29.77;101513.16;5066643;28;20067;-62
2022/04/20 10:44:55;;;;;;;5.10;3.10;;;;;;;17.56;30.11;101510.94;5096965;28;20028;-62
2022/04/20 10:47:27;;;;;;;4.60;3.38;;;;;;;17.58;29.94;101509.53;5092581;28;20039;-62
2022/04/20 10:50:09;;;;;;;8.88;3.40;;;;;;;17.64;30.45;101510.34;5100527;28;20035;-62
2022/04/20 10:52:38;;;;;;;4.18;3.10;;;;;;;17.68;30.83;101508.66;5103154;28;20027;-62
2022/04/20 10:55:04;;;;;;;5.95;2.97;;;;;;;17.82;31.91;101511.75;5091310;28;20032;-64
2022/04/20 10:57:35;;;;;;;5.03;3.75;;;;;;;17.77;30.38;101501.38;5084988;28;20039;-63
2022/04/20 11:00:16;;;;;;;5.93;3.33;;;;;;;17.83;30.78;101497.41;5082364;28;20365;-65
2022/04/20 11:02:53;;;;;;;3.47;2.65;;;;;;;17.89;31.17;101493.47;5087401;28;20646;-64
2022/04/20 11:05:24;;;;;;;6.45;2.90;;;;;;;17.96;31.10;101490.38;5085171;28;20383;-64
2022/04/20 11:08:25;;;;;;;6.25;3.20;;;;;;;18.01;30.14;101492.31;5076145;28;20090;-65
2022/04/20 11:19:52;;;;;;;7.15;3.55;;;;;;;18.06;31.11;101481.03;5092368;28;20047;-64
2022/04/20 11:22:17;;;;;;;6.43;3.17;;;;;;;18.14;30.91;101470.03;5085486;28;20036;-65
2022/04/20 11:24:43;;;;;;;4.85;3.40;;;;;;;17.98;30.85;101467.59;5092527;28;20036;-64
2022/04/20 11:27:08;;;;;;;4.47;2.97;;;;;;;18.12;30.54;101472.31;5087737;28;20512;-64
2022/04/20 11:29:34;;;;;;;4.00;3.03;;;;;;;18.00;29.73;101470.94;5081924;28;20372;-64
2022/04/20 11:32:03;;;;;;;4.35;3.17;;;;;;;17.98;30.98;101470.41;5092289;28;20051;-62
2022/04/20 11:34:34;;;;;;;5.72;2.53;;;;;;;18.25;31.72;101472.78;5084588;28;20016;-61
2022/04/20 11:37:03;;;;;;;5.50;3.38;;;;;;;18.23;30.44;101473.06;5091919;28;20360;-62
2022/04/20 11:39:29;;;;;;;3.75;3.25;;;;;;;18.31;30.94;101458.44;5080393;28;20093;-61
2022/04/20 11:42:02;;;;;;;5.15;2.92;;;;;;;18.46;30.07;101453.81;5087273;28;20554;-61
2022/04/20 11:44:34;;;;;;;7.68;3.45;;;;;;;18.47;30.12;101461.13;5098170;28;20030;-62
2022/04/20 11:47:07;;;;;;;4.60;3.20;;;;;;;18.49;29.49;101442.00;5086365;28;20039;-62
2022/04/20 11:49:39;;;;;;;4.10;2.92;;;;;;;18.59;29.72;101445.59;5086765;28;20391;-61
2022/04/20 11:52:07;;;;;;;4.43;3.05;;;;;;;18.65;30.15;101444.41;5100420;28;20036;-62
2022/04/20 11:54:34;;;;;;;5.47;3.70;;;;;;;18.58;29.45;101445.88;5101257;28;20107;-61
2022/04/20 11:56:59;;;;;;;4.28;2.70;;;;;;;18.64;30.01;101436.28;5093638;28;20028;-61